Time;durP1;ratioP1;P1;durP2;ratioP2;P2;SDS_P1;SDS_P2;PMS_P1;PMS_P2;Temp;Humidity;BMP_temperature;BMP_pressure;BME280_temperature;BME280_humidity;BME280_pressure;Samples;Min_cycle;Max_cycle;Signal;HPM_P1;HPM_P2
2023/03/24 00:02:18;;;;;;;3.50;2.07;;;12.30;99.90;;;;;;7747307;28;20196;-87
2023/03/24 00:06:06;;;;;;;3.33;2.47;;;12.30;99.90;;;;;;7746853;28;20212;-87
2023/03/24 00:09:53;;;;;;;3.17;2.40;;;12.30;99.90;;;;;;7744283;28;20191;-87
2023/03/24 00:13:39;;;;;;;3.23;2.50;;;12.30;99.90;;;;;;7745362;28;20215;-87
2023/03/24 00:17:28;;;;;;;4.30;2.67;;;12.30;99.90;;;;;;7744671;28;20191;-88
2023/03/24 00:21:14;;;;;;;5.90;2.87;;;12.30;99.90;;;;;;7740680;28;20188;-87
2023/03/24 00:25:02;;;;;;;5.37;2.47;;;12.30;99.90;;;;;;7743447;28;20222;-87
2023/03/24 00:28:48;;;;;;;6.47;2.90;;;12.30;99.90;;;;;;7744086;28;20521;-87
2023/03/24 00:32:36;;;;;;;4.17;2.77;;;12.40;99.90;;;;;;7745251;28;20220;-88
2023/03/24 00:36:25;;;;;;;4.60;2.87;;;12.40;99.90;;;;;;7741235;28;20744;-88
2023/03/24 00:40:16;;;;;;;4.77;3.47;;;12.30;99.90;;;;;;7744481;28;20227;-88
2023/03/24 00:44:04;;;;;;;5.17;3.03;;;12.30;99.90;;;;;;7780590;28;20227;-88
2023/03/24 00:47:52;;;;;;;4.77;3.27;;;12.30;99.90;;;;;;7751779;28;20196;-87
2023/03/24 00:51:40;;;;;;;6.60;3.53;;;12.30;99.90;;;;;;7742909;28;20211;-87
2023/03/24 00:55:27;;;;;;;3.97;3.10;;;12.40;99.90;;;;;;7743616;28;20581;-87
2023/03/24 00:59:13;;;;;;;8.03;3.30;;;12.40;99.90;;;;;;7745599;28;20183;-88
2023/03/24 01:02:58;;;;;;;5.73;2.90;;;12.40;99.90;;;;;;7743961;28;20188;-87
2023/03/24 01:06:45;;;;;;;4.33;3.20;;;12.40;99.90;;;;;;7740780;28;20569;-87
2023/03/24 01:10:35;;;;;;;6.07;2.87;;;12.40;99.90;;;;;;7744068;28;20183;-87
2023/03/24 01:14:20;;;;;;;4.23;2.80;;;12.40;99.90;;;;;;7760413;28;20251;-88
2023/03/24 01:18:08;;;;;;;4.10;3.13;;;12.40;99.90;;;;;;7744763;28;20646;-88
2023/03/24 01:21:54;;;;;;;5.37;3.20;;;12.40;99.90;;;;;;7744591;28;20199;-88
2023/03/24 01:25:44;;;;;;;4.70;3.00;;;12.40;99.90;;;;;;7744621;28;20216;-87
2023/03/24 01:29:30;;;;;;;7.10;3.50;;;12.40;99.90;;;;;;7743079;28;20198;-87
2023/03/24 01:33:15;;;;;;;4.90;3.10;;;12.40;99.90;;;;;;7744825;28;20215;-87
2023/03/24 01:37:02;;;;;;;5.20;3.13;;;12.40;99.90;;;;;;7741740;28;20196;-87
2023/03/24 01:40:48;;;;;;;4.30;3.10;;;12.40;99.90;;;;;;7740034;28;20180;-87
2023/03/24 01:44:36;;;;;;;5.43;3.20;;;12.40;99.90;;;;;;7741400;28;20755;-87
2023/03/24 01:48:34;;;;;;;4.73;3.37;;;12.40;99.90;;;;;;7733607;28;20192;-87
2023/03/24 01:52:30;;;;;;;5.53;2.87;;;12.40;99.90;;;;;;7742960;28;20223;-88
2023/03/24 01:56:15;;;;;;;9.37;4.07;;;12.40;99.90;;;;;;7742625;28;20665;-87
2023/03/24 02:00:10;;;;;;;6.30;3.10;;;12.40;99.90;;;;;;7742107;28;20613;-87
2023/03/24 02:03:57;;;;;;;3.70;2.83;;;12.40;99.90;;;;;;7740659;28;20747;-88
2023/03/24 02:08:09;;;;;;;4.43;3.10;;;12.40;99.90;;;;;;7739039;28;20585;-88
2023/03/24 02:11:55;;;;;;;4.37;3.00;;;12.40;99.90;;;;;;7741907;28;20243;-87
2023/03/24 02:16:20;;;;;;;8.10;2.70;;;12.40;99.90;;;;;;7743883;28;20700;-88
2023/03/24 02:20:15;;;;;;;4.00;2.60;;;12.50;99.90;;;;;;7736708;28;20608;-87
2023/03/24 02:24:44;;;;;;;3.60;2.80;;;12.50;99.90;;;;;;7743851;28;20219;-87
2023/03/24 02:28:48;;;;;;;3.07;2.70;;;12.50;99.90;;;;;;7743093;28;20199;-87
2023/03/24 02:32:54;;;;;;;5.23;2.97;;;12.60;99.90;;;;;;7765934;28;20282;-87
2023/03/24 02:37:12;;;;;;;4.60;2.70;;;12.60;99.90;;;;;;7736473;28;20198;-87
2023/03/24 02:41:25;;;;;;;3.23;2.70;;;12.60;99.90;;;;;;7736540;28;20204;-87
2023/03/24 02:45:16;;;;;;;3.47;2.60;;;12.60;99.90;;;;;;7741547;28;20203;-87
2023/03/24 02:49:11;;;;;;;4.20;2.70;;;12.60;99.90;;;;;;7737576;28;20741;-87
2023/03/24 02:53:07;;;;;;;6.40;2.87;;;12.60;99.90;;;;;;7743304;28;20538;-88
2023/03/24 02:57:01;;;;;;;3.73;2.80;;;12.60;99.90;;;;;;7738801;28;20195;-88
2023/03/24 03:01:02;;;;;;;4.00;2.77;;;12.50;99.90;;;;;;7741571;28;20184;-87
2023/03/24 03:05:12;;;;;;;3.97;3.13;;;12.50;99.90;;;;;;7743542;28;20540;-87
2023/03/24 03:09:04;;;;;;;3.50;2.50;;;12.60;99.90;;;;;;7739780;28;20204;-88
2023/03/24 03:12:55;;;;;;;5.90;2.70;;;12.60;99.90;;;;;;7742487;28;20218;-87
2023/03/24 03:16:53;;;;;;;3.67;2.70;;;12.60;99.90;;;;;;7739833;28;20195;-88
2023/03/24 03:20:49;;;;;;;4.83;2.87;;;12.60;99.90;;;;;;7738834;28;20196;-88
2023/03/24 03:24:38;;;;;;;4.13;2.67;;;12.50;99.90;;;;;;7741812;28;20720;-88
2023/03/24 03:28:28;;;;;;;3.87;2.77;;;12.50;99.90;;;;;;7741736;28;20192;-87
2023/03/24 03:32:23;;;;;;;4.20;2.90;;;12.50;99.90;;;;;;7745818;28;20681;-88
2023/03/24 03:36:18;;;;;;;4.20;2.57;;;12.50;99.90;;;;;;7746386;28;20681;-88
2023/03/24 03:40:13;;;;;;;3.83;2.80;;;12.60;99.90;;;;;;7743955;28;20187;-88
2023/03/24 03:44:00;;;;;;;4.43;2.63;;;12.60;99.90;;;;;;7761749;28;20581;-88
2023/03/24 03:47:45;;;;;;;6.23;2.77;;;12.60;99.90;;;;;;7745894;28;20211;-88
2023/03/24 03:51:32;;;;;;;5.07;2.90;;;12.60;99.90;;;;;;7744688;28;20192;-87
2023/03/24 03:55:18;;;;;;;5.77;2.90;;;12.60;99.90;;;;;;7747222;28;20364;-86
2023/03/24 03:59:05;;;;;;;3.33;2.57;;;12.60;99.90;;;;;;7747447;28;20192;-88
2023/03/24 04:03:24;;;;;;;6.57;2.73;;;12.60;99.90;;;;;;7744571;28;20201;-87
2023/03/24 04:07:56;;;;;;;4.27;3.00;;;12.50;99.90;;;;;;7713120;28;20200;-87
2023/03/24 04:11:42;;;;;;;6.70;2.90;;;12.40;99.90;;;;;;7756121;28;21506;-86
2023/03/24 04:15:37;;;;;;;4.17;2.87;;;12.40;99.90;;;;;;7758542;28;20204;-87
2023/03/24 04:20:00;;;;;;;3.33;2.80;;;12.30;99.90;;;;;;7789308;28;20175;-88
2023/03/24 04:24:04;;;;;;;5.53;2.93;;;12.30;99.90;;;;;;7741092;28;20215;-88
2023/03/24 04:28:13;;;;;;;3.70;2.77;;;12.30;99.90;;;;;;7746795;28;20286;-88
2023/03/24 04:32:18;;;;;;;3.90;2.50;;;12.30;99.90;;;;;;7745276;28;20395;-87
2023/03/24 04:36:17;;;;;;;5.93;3.20;;;12.30;99.90;;;;;;7742020;28;20200;-87
2023/03/24 04:40:13;;;;;;;4.70;3.37;;;12.20;99.90;;;;;;7742923;28;20180;-87
2023/03/24 04:43:59;;;;;;;7.90;3.37;;;12.20;99.90;;;;;;7742718;28;20285;-88
2023/03/24 04:47:53;;;;;;;3.50;3.20;;;12.20;99.90;;;;;;7744005;28;20195;-86
2023/03/24 04:51:39;;;;;;;7.43;3.30;;;12.20;99.90;;;;;;7750240;28;20211;-88
2023/03/24 04:55:36;;;;;;;5.93;3.30;;;12.20;99.90;;;;;;7762966;28;20263;-87
2023/03/24 04:59:22;;;;;;;5.47;3.20;;;12.20;99.90;;;;;;7744614;28;20184;-87
2023/03/24 05:03:07;;;;;;;7.60;3.40;;;12.20;99.90;;;;;;7743357;28;20208;-87
2023/03/24 05:06:53;;;;;;;6.57;4.20;;;12.20;99.90;;;;;;7746017;28;20254;-87
2023/03/24 05:10:39;;;;;;;6.23;3.60;;;12.20;99.90;;;;;;7745354;28;20188;-87
2023/03/24 05:14:25;;;;;;;5.30;3.77;;;12.10;99.90;;;;;;7742082;28;20218;-86
2023/03/24 05:18:12;;;;;;;6.50;3.53;;;12.10;99.90;;;;;;7743722;28;20175;-87
2023/03/24 05:21:57;;;;;;;7.50;3.83;;;12.10;99.90;;;;;;7744380;28;20184;-87
2023/03/24 05:25:45;;;;;;;9.20;3.93;;;12.00;99.90;;;;;;7734216;28;20243;-88
2023/03/24 05:29:32;;;;;;;8.17;4.30;;;12.00;99.90;;;;;;7742377;28;20943;-89
2023/03/24 05:33:17;;;;;;;6.27;4.30;;;12.00;99.90;;;;;;7750165;28;20226;-88
2023/03/24 05:37:03;;;;;;;7.10;4.50;;;11.90;99.90;;;;;;7745503;28;20180;-87
2023/03/24 05:40:49;;;;;;;7.37;4.00;;;12.00;99.90;;;;;;7744175;28;20188;-88
2023/03/24 05:44:36;;;;;;;9.87;4.83;;;12.00;99.90;;;;;;7744935;28;20317;-88
2023/03/24 05:48:22;;;;;;;10.53;4.43;;;12.00;99.90;;;;;;7744158;28;20227;-87
2023/03/24 05:52:08;;;;;;;6.03;4.27;;;12.00;99.90;;;;;;7745838;28;20672;-87
2023/03/24 05:55:57;;;;;;;6.50;3.97;;;12.00;99.90;;;;;;7743838;28;20204;-87
2023/03/24 05:59:43;;;;;;;9.50;4.30;;;12.00;99.90;;;;;;7744544;28;20527;-87
2023/03/24 06:03:32;;;;;;;6.17;3.90;;;12.00;99.90;;;;;;7745333;28;20200;-86
2023/03/24 06:07:18;;;;;;;8.37;3.90;;;12.00;99.90;;;;;;7779055;28;20194;-88
2023/03/24 06:11:04;;;;;;;6.07;4.40;;;12.00;99.90;;;;;;7749393;28;20191;-86
2023/03/24 06:14:50;;;;;;;7.87;4.53;;;12.00;99.90;;;;;;7743783;28;20246;-92
2023/03/24 06:18:56;;;;;;;8.97;4.10;;;11.90;99.90;;;;;;7746039;28;20674;-90
2023/03/24 06:22:44;;;;;;;7.10;3.97;;;12.00;99.90;;;;;;7744363;28;20195;-89
2023/03/24 06:26:30;;;;;;;7.07;4.17;;;12.00;99.90;;;;;;7745381;28;20246;-90
2023/03/24 06:30:17;;;;;;;6.10;3.70;;;12.10;99.90;;;;;;7744897;28;20274;-89
2023/03/24 06:34:03;;;;;;;9.33;4.00;;;12.10;99.90;;;;;;7744692;28;20211;-91
2023/03/24 06:37:49;;;;;;;8.50;3.80;;;12.20;99.90;;;;;;7743452;28;20770;-90
2023/03/24 06:41:35;;;;;;;5.33;3.60;;;12.20;99.90;;;;;;7716440;28;20523;-90
2023/03/24 06:45:21;;;;;;;4.73;3.30;;;12.10;99.90;;;;;;7739569;28;20214;-90
2023/03/24 06:49:07;;;;;;;6.43;3.50;;;12.20;99.90;;;;;;7746083;28;20184;-90
2023/03/24 06:52:52;;;;;;;4.67;3.00;;;12.20;99.90;;;;;;7743340;28;20211;-90
2023/03/24 06:56:38;;;;;;;6.13;3.33;;;12.30;99.90;;;;;;7743358;28;20600;-91
2023/03/24 07:00:24;;;;;;;4.20;3.13;;;12.20;99.90;;;;;;7724039;28;20616;-89
2023/03/24 07:04:10;;;;;;;4.43;3.13;;;12.30;99.90;;;;;;7739079;28;20207;-89
2023/03/24 07:07:56;;;;;;;5.43;3.17;;;12.30;99.90;;;;;;7751354;28;20191;-90
2023/03/24 07:11:42;;;;;;;4.90;3.17;;;12.40;99.90;;;;;;7751264;28;20184;-90
2023/03/24 07:15:28;;;;;;;4.23;3.13;;;12.40;99.90;;;;;;7749905;28;20255;-90
2023/03/24 07:19:14;;;;;;;5.07;3.30;;;12.40;99.90;;;;;;7748314;28;20176;-90
2023/03/24 07:22:59;;;;;;;5.43;3.17;;;12.40;99.90;;;;;;7748057;28;20212;-90
2023/03/24 07:26:45;;;;;;;6.00;3.33;;;12.40;99.90;;;;;;7749351;28;20195;-89
2023/03/24 07:30:31;;;;;;;5.33;3.40;;;12.50;99.90;;;;;;7747716;28;20271;-89
2023/03/24 07:34:16;;;;;;;5.23;3.30;;;12.50;99.90;;;;;;7752603;28;20273;-89
2023/03/24 07:38:02;;;;;;;4.17;2.97;;;12.50;99.90;;;;;;7749369;28;20226;-90
2023/03/24 07:41:48;;;;;;;4.47;3.00;;;12.50;99.90;;;;;;7753162;28;20188;-88
2023/03/24 07:45:33;;;;;;;4.53;3.50;;;12.60;99.90;;;;;;7755133;28;20200;-87
2023/03/24 07:49:20;;;;;;;3.70;2.90;;;12.90;99.90;;;;;;7746514;28;20192;-88
2023/03/24 07:53:08;;;;;;;5.67;3.40;;;13.10;99.90;;;;;;7752203;28;20243;-87
2023/03/24 07:56:54;;;;;;;7.10;3.67;;;13.20;99.90;;;;;;7768940;28;20207;-89
2023/03/24 08:00:40;;;;;;;3.83;3.10;;;13.30;99.90;;;;;;7742033;28;20278;-89
2023/03/24 08:04:27;;;;;;;5.27;3.30;;;13.40;99.90;;;;;;7754846;28;20208;-88
2023/03/24 08:08:12;;;;;;;6.10;3.43;;;13.40;99.90;;;;;;7746619;28;20176;-88
2023/03/24 08:11:58;;;;;;;5.10;3.63;;;13.40;99.90;;;;;;7762405;28;20199;-88
2023/03/24 08:15:44;;;;;;;7.17;4.07;;;13.50;99.90;;;;;;7741781;28;20211;-89
2023/03/24 08:19:29;;;;;;;4.77;3.53;;;13.60;99.90;;;;;;7761781;28;20263;-88
2023/03/24 08:23:16;;;;;;;7.10;3.40;;;13.70;99.90;;;;;;7747434;28;20203;-88
2023/03/24 08:27:05;;;;;;;6.10;3.67;;;13.80;99.90;;;;;;7740708;28;20598;-88
2023/03/24 08:30:50;;;;;;;5.93;3.37;;;13.70;99.90;;;;;;7739940;28;20184;-89
2023/03/24 08:34:36;;;;;;;7.17;3.77;;;13.70;99.90;;;;;;7735352;28;20221;-89
2023/03/24 08:38:29;;;;;;;6.97;3.70;;;13.70;99.90;;;;;;7737397;28;20195;-88
2023/03/24 08:42:15;;;;;;;4.67;3.40;;;13.70;99.90;;;;;;7735881;28;20188;-88
2023/03/24 08:46:01;;;;;;;4.07;2.97;;;13.80;99.90;;;;;;7736140;28;20206;-88
2023/03/24 08:49:47;;;;;;;6.30;3.20;;;13.90;99.90;;;;;;7740144;28;20233;-88
2023/03/24 08:53:32;;;;;;;6.73;3.47;;;13.90;99.90;;;;;;7737151;28;20480;-89
2023/03/24 08:57:18;;;;;;;7.23;3.60;;;13.90;99.90;;;;;;7734911;28;20188;-88
2023/03/24 09:01:04;;;;;;;6.47;3.43;;;14.00;99.90;;;;;;7735979;28;20193;-88
2023/03/24 09:04:52;;;;;;;5.30;3.33;;;14.00;99.90;;;;;;7739323;28;20204;-89
2023/03/24 09:08:38;;;;;;;5.13;3.47;;;14.00;99.90;;;;;;7736776;28;20192;-88
2023/03/24 09:12:24;;;;;;;5.37;3.10;;;14.00;99.90;;;;;;7730714;28;20211;-88
2023/03/24 09:16:10;;;;;;;7.73;3.60;;;14.00;99.90;;;;;;7738071;28;20592;-88
2023/03/24 09:19:55;;;;;;;5.10;3.60;;;14.00;99.90;;;;;;7740211;28;20187;-87
2023/03/24 09:23:41;;;;;;;6.13;3.90;;;14.00;99.90;;;;;;7733418;28;20207;-87
2023/03/24 09:27:27;;;;;;;5.67;3.40;;;14.00;99.90;;;;;;7731292;28;20239;-87
2023/03/24 09:31:12;;;;;;;6.87;3.20;;;14.00;99.90;;;;;;7736258;28;20558;-87
2023/03/24 09:34:58;;;;;;;5.20;2.93;;;14.00;99.90;;;;;;7738803;28;20262;-87
2023/03/24 09:38:44;;;;;;;6.20;3.40;;;13.90;99.90;;;;;;7735541;28;20177;-87
2023/03/24 09:42:37;;;;;;;5.63;3.27;;;14.00;99.90;;;;;;7766691;28;20200;-89
2023/03/24 09:47:08;;;;;;;3.30;2.70;;;14.00;99.90;;;;;;7741866;28;20271;-88
2023/03/24 09:51:01;;;;;;;4.57;3.00;;;14.10;99.90;;;;;;7711303;28;20204;-88
2023/03/24 09:55:02;;;;;;;4.67;3.07;;;14.20;99.90;;;;;;7739618;28;20252;-87
2023/03/24 09:59:15;;;;;;;3.93;2.63;;;14.20;99.90;;;;;;7741581;28;20196;-88
2023/03/24 10:03:21;;;;;;;3.10;2.80;;;14.30;99.90;;;;;;7718472;28;20199;-87
2023/03/24 10:07:21;;;;;;;3.87;2.90;;;14.30;99.90;;;;;;7746856;28;20187;-86
2023/03/24 10:11:26;;;;;;;6.20;2.67;;;14.40;99.90;;;;;;7749796;28;20183;-89
2023/03/24 10:15:37;;;;;;;3.60;2.43;;;14.50;99.90;;;;;;7757019;28;20227;-87
2023/03/24 10:20:06;;;;;;;2.30;2.10;;;14.60;99.90;;;;;;7740734;28;20203;-88
2023/03/24 10:24:06;;;;;;;2.23;1.80;;;14.70;99.90;;;;;;7743988;28;20899;-87
2023/03/24 10:28:04;;;;;;;2.13;1.50;;;14.80;99.90;;;;;;7745351;28;20199;-86
2023/03/24 10:32:18;;;;;;;3.70;1.33;;;14.80;99.90;;;;;;7749509;28;20191;-85
2023/03/24 10:36:17;;;;;;;3.00;1.60;;;14.80;99.90;;;;;;7763483;28;20195;-86
2023/03/24 10:40:13;;;;;;;2.23;1.50;;;14.80;99.90;;;;;;7752030;28;20191;-85
2023/03/24 10:44:00;;;;;;;3.23;2.93;;;14.80;99.90;;;;;;7752904;28;20207;-85
2023/03/24 10:47:47;;;;;;;9.03;5.50;;;14.90;99.90;;;;;;7752099;28;20230;-86
2023/03/24 10:51:36;;;;;;;1.57;1.23;;;14.90;99.90;;;;;;7751882;28;20280;-86
2023/03/24 10:55:30;;;;;;;1.47;1.17;;;14.90;99.90;;;;;;7752161;28;20666;-86
2023/03/24 10:59:30;;;;;;;3.07;1.40;;;14.90;99.90;;;;;;7751782;28;20199;-90
2023/03/24 11:03:26;;;;;;;1.83;1.10;;;14.90;99.90;;;;;;7739387;28;20208;-86
2023/03/24 11:07:20;;;;;;;1.00;0.87;;;14.90;99.90;;;;;;7744802;28;20184;-83
2023/03/24 11:11:30;;;;;;;0.80;0.80;;;14.90;99.90;;;;;;7747025;28;20176;-83
2023/03/24 11:15:20;;;;;;;1.07;0.97;;;15.00;99.90;;;;;;7743880;28;20285;-85
2023/03/24 11:19:20;;;;;;;1.40;1.10;;;15.00;99.90;;;;;;7744515;28;20191;-85
2023/03/24 11:23:10;;;;;;;1.13;1.03;;;15.10;99.90;;;;;;7735927;28;20212;-85
2023/03/24 11:27:00;;;;;;;1.00;0.87;;;15.10;99.90;;;;;;7765181;28;20200;-86
2023/03/24 11:30:49;;;;;;;0.70;0.70;;;15.10;99.90;;;;;;7782610;28;20174;-83
2023/03/24 11:34:41;;;;;;;1.23;0.73;;;15.10;99.90;;;;;;7725164;28;20936;-87
2023/03/24 11:38:31;;;;;;;0.60;0.60;;;15.10;99.90;;;;;;7752781;28;20188;-85
2023/03/24 11:42:17;;;;;;;3.83;0.60;;;15.10;99.90;;;;;;7741647;28;20234;-87
2023/03/24 11:46:16;;;;;;;0.70;0.70;;;15.10;99.90;;;;;;7741577;28;20332;-86
2023/03/24 11:50:10;;;;;;;5.07;1.00;;;15.10;99.90;;;;;;7745456;28;20175;-87
2023/03/24 11:53:58;;;;;;;1.47;0.67;;;15.20;99.90;;;;;;7738818;28;20864;-87
2023/03/24 11:58:13;;;;;;;1.05;0.80;;;15.20;99.90;;;;;;7747743;28;20180;-86
2023/03/24 12:02:14;;;;;;;0.60;0.60;;;15.30;99.90;;;;;;7764573;28;20187;-86
2023/03/24 12:06:19;;;;;;;1.10;0.68;;;15.30;99.90;;;;;;7748273;28;20577;-88
2023/03/24 12:10:07;;;;;;;1.50;0.80;;;15.40;99.90;;;;;;7748551;28;20180;-86
2023/03/24 12:13:56;;;;;;;3.70;0.90;;;15.40;99.90;;;;;;7752090;28;20224;-86
2023/03/24 12:17:54;;;;;;;2.67;0.70;;;15.30;99.90;;;;;;7748822;28;20176;-86
2023/03/24 12:22:01;;;;;;;1.00;0.90;;;15.30;99.90;;;;;;7761968;28;20179;-86
2023/03/24 12:26:20;;;;;;;0.90;0.90;;;15.40;99.90;;;;;;7754144;28;20299;-87
2023/03/24 12:30:52;;;;;;;0.90;0.90;;;15.40;99.90;;;;;;7750555;28;20554;-87
2023/03/24 12:35:12;;;;;;;0.88;0.80;;;15.40;99.90;;;;;;7760794;28;20270;-87
2023/03/24 12:39:08;;;;;;;1.63;1.17;;;15.50;99.90;;;;;;7746759;28;20169;-87
2023/03/24 12:43:07;;;;;;;0.70;0.70;;;15.50;99.90;;;;;;7743336;28;20183;-88
2023/03/24 12:47:18;;;;;;;0.80;0.60;;;15.60;99.90;;;;;;7762419;28;20227;-87
2023/03/24 12:51:45;;;;;;;0.97;0.87;;;15.50;99.90;;;;;;7749057;28;20234;-88
2023/03/24 12:56:00;;;;;;;2.20;1.30;;;15.40;99.90;;;;;;7744990;28;20220;-89
2023/03/24 13:00:00;;;;;;;1.63;1.10;;;15.40;99.90;;;;;;7746626;28;20180;-86
2023/03/24 13:03:50;;;;;;;1.70;1.13;;;15.30;99.90;;;;;;7746843;28;20188;-88
2023/03/24 13:07:42;;;;;;;1.37;1.00;;;15.30;99.90;;;;;;7752482;28;20749;-89
2023/03/24 13:11:45;;;;;;;0.77;0.77;;;15.20;99.90;;;;;;7747014;28;20180;-88
2023/03/24 13:15:37;;;;;;;1.50;0.97;;;15.20;99.90;;;;;;7746579;28;20235;-90
2023/03/24 13:19:24;;;;;;;2.67;1.40;;;15.10;99.90;;;;;;7783971;28;20206;-88
2023/03/24 13:23:38;;;;;;;3.43;1.30;;;15.10;99.90;;;;;;7747087;28;20200;-88
2023/03/24 13:27:28;;;;;;;2.50;1.27;;;15.10;99.90;;;;;;7732726;28;20200;-84
2023/03/24 13:31:16;;;;;;;4.20;2.80;;;15.10;99.90;;;;;;7745872;28;20172;-87
2023/03/24 13:35:14;;;;;;;4.07;3.00;;;15.10;99.90;;;;;;7744603;28;20258;-89
2023/03/24 13:39:05;;;;;;;3.30;1.90;;;15.00;99.90;;;;;;7739236;28;20211;-88
2023/03/24 13:42:59;;;;;;;3.43;1.80;;;15.00;99.90;;;;;;7746233;28;20207;-88
2023/03/24 13:47:03;;;;;;;2.27;1.40;;;15.00;99.90;;;;;;7744783;28;20180;-89
2023/03/24 13:51:25;;;;;;;7.60;3.30;;;15.00;99.90;;;;;;7738706;28;20187;-87
2023/03/24 13:55:25;;;;;;;2.47;1.80;;;15.00;99.90;;;;;;7744870;28;20222;-87
2023/03/24 13:59:35;;;;;;;2.23;1.60;;;15.00;99.90;;;;;;7735875;28;20188;-89
2023/03/24 14:03:37;;;;;;;1.60;1.30;;;15.10;99.90;;;;;;7754477;28;20211;-89
2023/03/24 14:07:43;;;;;;;1.43;1.30;;;15.10;99.90;;;;;;7732000;28;20642;-88
2023/03/24 14:11:32;;;;;;;1.10;1.00;;;15.10;99.90;;;;;;7743838;28;20195;-88
2023/03/24 14:15:24;;;;;;;1.20;0.97;;;15.10;99.90;;;;;;7737003;28;20215;-91
2023/03/24 14:19:24;;;;;;;6.13;1.30;;;15.10;99.90;;;;;;7743473;28;20238;-88
2023/03/24 14:23:41;;;;;;;8.53;1.63;;;13.80;99.90;;;;;;7750792;28;20438;-90
2023/03/24 14:27:44;;;;;;;3.30;1.17;;;12.40;99.90;;;;;;7749774;28;20597;-89
2023/03/24 14:31:32;;;;;;;3.63;1.00;;;11.80;99.90;;;;;;7735329;28;20235;-90
2023/03/24 14:35:23;;;;;;;3.90;1.23;;;11.60;99.90;;;;;;7751597;28;20779;-89
2023/03/24 14:39:18;;;;;;;1.57;1.00;;;11.50;99.90;;;;;;7736243;28;20181;-90
2023/03/24 14:43:31;;;;;;;1.20;1.10;;;11.40;99.90;;;;;;7753567;28;20239;-90
2023/03/24 14:47:37;;;;;;;3.03;1.20;;;11.30;99.90;;;;;;7730624;28;20206;-90
2023/03/24 14:51:44;;;;;;;3.43;1.30;;;11.30;99.90;;;;;;7726487;28;20191;-90
2023/03/24 14:55:30;;;;;;;3.27;1.40;;;11.40;99.90;;;;;;7766249;28;20257;-91
2023/03/24 14:59:35;;;;;;;1.47;1.10;;;11.50;99.90;;;;;;7751909;28;20176;-91
2023/03/24 15:03:59;;;;;;;2.10;0.97;;;11.60;99.90;;;;;;7737983;28;20761;-91
2023/03/24 15:07:58;;;;;;;3.67;1.83;;;11.60;99.90;;;;;;7787474;28;20208;-90
2023/03/24 15:11:46;;;;;;;2.93;1.10;;;11.60;99.90;;;;;;7736372;28;20642;-90
2023/03/24 15:15:32;;;;;;;2.93;1.30;;;11.70;99.90;;;;;;7740771;28;20208;-90
2023/03/24 15:19:21;;;;;;;4.07;1.30;;;11.60;99.90;;;;;;7744309;28;20196;-90
2023/03/24 15:23:07;;;;;;;1.37;1.10;;;11.70;99.90;;;;;;7744839;28;20219;-90
2023/03/24 15:27:05;;;;;;;1.53;1.17;;;11.90;99.90;;;;;;7768120;28;20199;-89
2023/03/24 15:30:51;;;;;;;6.33;2.80;;;12.00;99.90;;;;;;7767779;28;20191;-91
2023/03/24 15:34:45;;;;;;;4.53;2.60;;;12.00;99.90;;;;;;7750107;28;20227;-90
2023/03/24 15:38:32;;;;;;;2.97;1.90;;;12.10;99.90;;;;;;7766220;28;20188;-90
2023/03/24 15:42:21;;;;;;;3.40;2.50;;;12.10;99.90;;;;;;7747231;28;20199;-90
2023/03/24 15:46:27;;;;;;;3.10;2.10;;;12.10;99.90;;;;;;7757894;28;20274;-90
2023/03/24 15:50:56;;;;;;;3.70;2.20;;;12.20;99.90;;;;;;7765378;28;20196;-94
2023/03/24 15:54:43;;;;;;;2.17;1.53;;;12.40;99.90;;;;;;7718222;28;20256;-94
2023/03/24 15:58:31;;;;;;;2.20;1.53;;;12.50;99.90;;;;;;7720031;28;20272;-94
2023/03/24 16:02:32;;;;;;;4.47;1.30;;;12.40;99.90;;;;;;7714385;28;20212;-92
2023/03/24 16:06:47;;;;;;;3.10;1.20;;;12.60;99.90;;;;;;7731429;28;20232;-94
2023/03/24 16:10:44;;;;;;;4.17;1.20;;;12.80;99.90;;;;;;7733638;28;20189;-94
2023/03/24 16:14:31;;;;;;;2.43;1.10;;;12.70;99.90;;;;;;7733393;28;20212;-93
2023/03/24 16:18:20;;;;;;;2.00;1.20;;;12.80;99.90;;;;;;7729306;28;20733;-87
2023/03/24 16:22:12;;;;;;;3.20;1.20;;;12.70;99.90;;;;;;7720861;28;20678;-94
2023/03/24 16:25:59;;;;;;;2.90;1.53;;;12.90;99.90;;;;;;7719800;28;20243;-95
2023/03/24 16:29:44;;;;;;;3.10;1.30;;;12.90;99.90;;;;;;7727101;28;20199;-94
2023/03/24 16:33:32;;;;;;;1.00;0.80;;;12.80;99.90;;;;;;7767577;28;20212;-93
2023/03/24 17:55:39;;;;;;;2.23;1.37;;;11.50;99.90;;;;;;7808752;28;20230;-90
2023/03/24 17:59:25;;;;;;;1.80;1.20;;;11.40;99.90;;;;;;7819817;28;20185;-93
2023/03/24 18:03:11;;;;;;;2.10;1.33;;;11.50;99.90;;;;;;7816960;28;20202;-88
2023/03/24 18:06:58;;;;;;;3.83;1.43;;;11.50;99.90;;;;;;7804459;28;20178;-87
2023/03/24 18:10:43;;;;;;;1.30;1.10;;;11.50;99.90;;;;;;7801206;28;20175;-86
2023/03/24 18:15:26;;;;;;;2.50;1.50;;;11.50;99.90;;;;;;7812607;28;20210;-93
2023/03/24 18:19:33;;;;;;;2.77;1.43;;;11.50;99.90;;;;;;7737621;28;20682;-94
2023/03/24 18:23:18;;;;;;;3.53;1.70;;;11.50;99.90;;;;;;7722512;28;20216;-91
2023/03/24 18:27:39;;;;;;;2.27;1.67;;;11.50;99.90;;;;;;7720987;28;20317;-92
2023/03/24 18:31:32;;;;;;;2.70;1.53;;;11.40;99.90;;;;;;7719688;28;20173;-93
2023/03/24 18:35:18;;;;;;;2.43;1.47;;;11.40;99.90;;;;;;7719078;28;20227;-92
2023/03/24 18:40:05;;;;;;;5.33;1.47;;;11.40;99.90;;;;;;7719364;28;20682;-92
2023/03/24 18:44:25;;;;;;;2.40;1.60;;;11.40;99.90;;;;;;7615058;29;20292;-93
2023/03/24 18:48:41;;;;;;;2.63;1.70;;;11.50;99.90;;;;;;7588390;29;20191;-93
2023/03/24 18:52:51;;;;;;;4.30;1.83;;;11.40;99.90;;;;;;7609140;29;20231;-92
